sensor_id;sensor_type;location;lat;lon;timestamp;P1;durP1;ratioP1;P2;durP2;ratioP2
80910;SDS011;70359;51.420;7.032;2024-02-26T00:00:53;1.9;;;1.4;;
80910;SDS011;70359;51.420;7.032;2024-02-26T00:03:18;1.9;;;1.4;;
80910;SDS011;70359;51.420;7.032;2024-02-26T00:05:43;1.5;;;1.4;;
80910;SDS011;70359;51.420;7.032;2024-02-26T00:08:08;1.5;;;1.4;;
80910;SDS011;70359;51.420;7.032;2024-02-26T00:10:33;1.1;;;1;;
80910;SDS011;70359;51.420;7.032;2024-02-26T00:12:58;1.1;;;1;;
80910;SDS011;70359;51.420;7.032;2024-02-26T00:15:23;0.9;;;0.8;;
80910;SDS011;70359;51.420;7.032;2024-02-26T00:17:48;0.9;;;0.8;;
80910;SDS011;70359;51.420;7.032;2024-02-26T00:20:18;1.1;;;1;;
80910;SDS011;70359;51.420;7.032;2024-02-26T00:22:38;1.1;;;1;;
80910;SDS011;70359;51.420;7.032;2024-02-26T00:25:04;1.1;;;1;;
80910;SDS011;70359;51.420;7.032;2024-02-26T00:27:28;1.1;;;1;;
80910;SDS011;70359;51.420;7.032;2024-02-26T00:29:53;0.7;;;0.7;;
80910;SDS011;70359;51.420;7.032;2024-02-26T00:32:18;0.7;;;0.7;;
80910;SDS011;70359;51.420;7.032;2024-02-26T00:34:43;0.6;;;0.6;;
80910;SDS011;70359;51.420;7.032;2024-02-26T00:37:08;0.6;;;0.6;;
80910;SDS011;70359;51.420;7.032;2024-02-26T00:39:37;1.1;;;1;;
80910;SDS011;70359;51.420;7.032;2024-02-26T00:41:58;1.1;;;1;;
80910;SDS011;70359;51.420;7.032;2024-02-26T00:44:23;1.2;;;0.9;;
80910;SDS011;70359;51.420;7.032;2024-02-26T00:46:52;1.2;;;0.9;;
80910;SDS011;70359;51.420;7.032;2024-02-26T00:49:13;0.7;;;0.7;;
80910;SDS011;70359;51.420;7.032;2024-02-26T00:51:38;0.7;;;0.7;;
80910;SDS011;70359;51.420;7.032;2024-02-26T00:54:07;0.8;;;0.8;;
80910;SDS011;70359;51.420;7.032;2024-02-26T00:56:32;0.8;;;0.8;;
80910;SDS011;70359;51.420;7.032;2024-02-26T00:58:53;0.9;;;0.8;;
80910;SDS011;70359;51.420;7.032;2024-02-26T01:01:18;0.9;;;0.8;;
80910;SDS011;70359;51.420;7.032;2024-02-26T01:03:43;1.1;;;1;;
80910;SDS011;70359;51.420;7.032;2024-02-26T01:06:08;1.1;;;1;;
80910;SDS011;70359;51.420;7.032;2024-02-26T01:08:34;1.1;;;1;;
80910;SDS011;70359;51.420;7.032;2024-02-26T01:10:58;1.1;;;1;;
80910;SDS011;70359;51.420;7.032;2024-02-26T01:13:23;1.1;;;1;;
80910;SDS011;70359;51.420;7.032;2024-02-26T01:15:48;1;;;0.8;;
80910;SDS011;70359;51.420;7.032;2024-02-26T01:18:17;1;;;0.8;;
80910;SDS011;70359;51.420;7.032;2024-02-26T01:20:38;0.9;;;0.8;;
80910;SDS011;70359;51.420;7.032;2024-02-26T01:23:04;0.9;;;0.8;;
80910;SDS011;70359;51.420;7.032;2024-02-26T01:25:28;0.7;;;0.7;;
80910;SDS011;70359;51.420;7.032;2024-02-26T01:27:53;0.7;;;0.7;;
80910;SDS011;70359;51.420;7.032;2024-02-26T01:30:22;0.5;;;0.5;;
80910;SDS011;70359;51.420;7.032;2024-02-26T01:32:43;0.5;;;0.5;;
80910;SDS011;70359;51.420;7.032;2024-02-26T01:35:13;0.8;;;0.7;;
80910;SDS011;70359;51.420;7.032;2024-02-26T01:37:33;0.8;;;0.7;;
80910;SDS011;70359;51.420;7.032;2024-02-26T01:39:58;1.7;;;0.7;;
80910;SDS011;70359;51.420;7.032;2024-02-26T01:42:23;1.7;;;0.7;;
80910;SDS011;70359;51.420;7.032;2024-02-26T01:44:48;1;;;0.9;;
80910;SDS011;70359;51.420;7.032;2024-02-26T01:47:13;1;;;0.9;;
80910;SDS011;70359;51.420;7.032;2024-02-26T01:49:39;0.9;;;0.8;;
80910;SDS011;70359;51.420;7.032;2024-02-26T01:52:04;0.9;;;0.8;;
80910;SDS011;70359;51.420;7.032;2024-02-26T01:54:29;1.1;;;0.8;;
80910;SDS011;70359;51.420;7.032;2024-02-26T01:56:58;1.1;;;0.8;;
80910;SDS011;70359;51.420;7.032;2024-02-26T01:59:19;1.8;;;0.7;;
80910;SDS011;70359;51.420;7.032;2024-02-26T02:01:44;1.8;;;0.7;;
80910;SDS011;70359;51.420;7.032;2024-02-26T02:04:09;0.6;;;0.6;;
80910;SDS011;70359;51.420;7.032;2024-02-26T02:06:38;0.6;;;0.6;;
80910;SDS011;70359;51.420;7.032;2024-02-26T02:08:59;1.1;;;0.9;;
80910;SDS011;70359;51.420;7.032;2024-02-26T02:11:23;1.1;;;0.9;;
80910;SDS011;70359;51.420;7.032;2024-02-26T02:13:48;0.7;;;0.7;;
80910;SDS011;70359;51.420;7.032;2024-02-26T02:16:13;0.7;;;0.7;;
80910;SDS011;70359;51.420;7.032;2024-02-26T02:18:38;0.7;;;0.6;;
80910;SDS011;70359;51.420;7.032;2024-02-26T02:21:04;0.7;;;0.6;;
80910;SDS011;70359;51.420;7.032;2024-02-26T02:23:29;0.7;;;0.6;;
80910;SDS011;70359;51.420;7.032;2024-02-26T02:25:54;0.6;;;0.6;;
80910;SDS011;70359;51.420;7.032;2024-02-26T02:28:19;0.6;;;0.6;;
80910;SDS011;70359;51.420;7.032;2024-02-26T02:30:44;0.7;;;0.7;;
80910;SDS011;70359;51.420;7.032;2024-02-26T02:33:09;0.7;;;0.7;;
80910;SDS011;70359;51.420;7.032;2024-02-26T02:35:34;1;;;0.8;;
80910;SDS011;70359;51.420;7.032;2024-02-26T02:37:58;1;;;0.8;;
80910;SDS011;70359;51.420;7.032;2024-02-26T02:40:24;0.8;;;0.7;;
80910;SDS011;70359;51.420;7.032;2024-02-26T02:42:49;0.8;;;0.7;;
80910;SDS011;70359;51.420;7.032;2024-02-26T02:45:14;0.8;;;0.8;;
80910;SDS011;70359;51.420;7.032;2024-02-26T02:47:39;0.8;;;0.8;;
80910;SDS011;70359;51.420;7.032;2024-02-26T02:50:04;0.9;;;0.9;;
80910;SDS011;70359;51.420;7.032;2024-02-26T02:52:33;0.9;;;0.9;;
80910;SDS011;70359;51.420;7.032;2024-02-26T02:54:54;1.1;;;1;;
80910;SDS011;70359;51.420;7.032;2024-02-26T02:57:19;1.1;;;1;;
80910;SDS011;70359;51.420;7.032;2024-02-26T02:59:44;1;;;0.9;;
80910;SDS011;70359;51.420;7.032;2024-02-26T03:02:13;1;;;0.9;;
80910;SDS011;70359;51.420;7.032;2024-02-26T03:04:34;0.7;;;0.7;;
80910;SDS011;70359;51.420;7.032;2024-02-26T03:06:59;0.7;;;0.7;;
80910;SDS011;70359;51.420;7.032;2024-02-26T03:09:24;2.6;;;1;;
80910;SDS011;70359;51.420;7.032;2024-02-26T03:11:49;2.6;;;1;;
80910;SDS011;70359;51.420;7.032;2024-02-26T03:14:14;0.8;;;0.7;;
80910;SDS011;70359;51.420;7.032;2024-02-26T03:16:43;0.8;;;0.7;;
80910;SDS011;70359;51.420;7.032;2024-02-26T03:19:04;2.1;;;1.1;;
80910;SDS011;70359;51.420;7.032;2024-02-26T03:21:29;2.1;;;1.1;;
80910;SDS011;70359;51.420;7.032;2024-02-26T03:23:54;1.3;;;1.1;;
80910;SDS011;70359;51.420;7.032;2024-02-26T03:26:19;1.3;;;1.1;;
80910;SDS011;70359;51.420;7.032;2024-02-26T03:28:48;1.1;;;1;;
80910;SDS011;70359;51.420;7.032;2024-02-26T03:31:09;1.1;;;1;;
80910;SDS011;70359;51.420;7.032;2024-02-26T03:33:34;1.2;;;0.9;;
80910;SDS011;70359;51.420;7.032;2024-02-26T03:36:03;1.2;;;0.9;;
80910;SDS011;70359;51.420;7.032;2024-02-26T03:38:28;1.2;;;0.9;;
80910;SDS011;70359;51.420;7.032;2024-02-26T03:40:49;0.8;;;0.8;;
80910;SDS011;70359;51.420;7.032;2024-02-26T03:43:14;0.8;;;0.8;;
80910;SDS011;70359;51.420;7.032;2024-02-26T03:45:43;1.2;;;1.1;;
80910;SDS011;70359;51.420;7.032;2024-02-26T03:48:08;1.2;;;1.1;;
80910;SDS011;70359;51.420;7.032;2024-02-26T03:50:29;0.9;;;0.9;;
80910;SDS011;70359;51.420;7.032;2024-02-26T03:52:54;0.9;;;0.9;;
80910;SDS011;70359;51.420;7.032;2024-02-26T03:55:23;1.4;;;1;;
80910;SDS011;70359;51.420;7.032;2024-02-26T03:57:48;1.4;;;1;;
80910;SDS011;70359;51.420;7.032;2024-02-26T04:00:10;1.5;;;1.2;;
80910;SDS011;70359;51.420;7.032;2024-02-26T04:02:34;1.5;;;1.2;;
80910;SDS011;70359;51.420;7.032;2024-02-26T04:04:59;0.9;;;0.9;;
80910;SDS011;70359;51.420;7.032;2024-02-26T04:07:24;0.9;;;0.9;;
80910;SDS011;70359;51.420;7.032;2024-02-26T04:09:49;0.8;;;0.8;;
80910;SDS011;70359;51.420;7.032;2024-02-26T04:12:14;0.8;;;0.8;;
80910;SDS011;70359;51.420;7.032;2024-02-26T04:14:39;0.8;;;0.8;;
80910;SDS011;70359;51.420;7.032;2024-02-26T04:17:04;0.8;;;0.8;;
80910;SDS011;70359;51.420;7.032;2024-02-26T04:19:29;1.1;;;1;;
80910;SDS011;70359;51.420;7.032;2024-02-26T04:21:54;1.1;;;1;;
80910;SDS011;70359;51.420;7.032;2024-02-26T04:24:19;1.4;;;1.1;;
80910;SDS011;70359;51.420;7.032;2024-02-26T04:26:48;1.4;;;1.1;;
80910;SDS011;70359;51.420;7.032;2024-02-26T04:29:09;1;;;0.9;;
80910;SDS011;70359;51.420;7.032;2024-02-26T04:31:34;1;;;0.9;;
80910;SDS011;70359;51.420;7.032;2024-02-26T04:33:59;1.3;;;1.2;;
80910;SDS011;70359;51.420;7.032;2024-02-26T04:36:28;1.3;;;1.2;;
80910;SDS011;70359;51.420;7.032;2024-02-26T04:38:53;1.2;;;1.1;;
80910;SDS011;70359;51.420;7.032;2024-02-26T04:41:14;1.2;;;1.1;;
80910;SDS011;70359;51.420;7.032;2024-02-26T04:43:39;1.5;;;1.1;;
80910;SDS011;70359;51.420;7.032;2024-02-26T04:46:04;1.5;;;1.1;;
80910;SDS011;70359;51.420;7.032;2024-02-26T04:48:29;1.5;;;1.1;;
80910;SDS011;70359;51.420;7.032;2024-02-26T04:50:54;1.8;;;1.1;;
80910;SDS011;70359;51.420;7.032;2024-02-26T04:53:19;1.8;;;1.1;;
80910;SDS011;70359;51.420;7.032;2024-02-26T04:55:48;1.3;;;1;;
80910;SDS011;70359;51.420;7.032;2024-02-26T04:58:09;1.3;;;1;;
80910;SDS011;70359;51.420;7.032;2024-02-26T05:00:34;2.7;;;1.4;;
80910;SDS011;70359;51.420;7.032;2024-02-26T05:02:59;2.7;;;1.4;;
80910;SDS011;70359;51.420;7.032;2024-02-26T05:05:24;1.3;;;1.2;;
80910;SDS011;70359;51.420;7.032;2024-02-26T05:07:49;1.3;;;1.2;;
80910;SDS011;70359;51.420;7.032;2024-02-26T05:10:14;1.2;;;1.1;;
80910;SDS011;70359;51.420;7.032;2024-02-26T05:12:39;1.2;;;1.1;;
80910;SDS011;70359;51.420;7.032;2024-02-26T05:15:05;1.2;;;1.1;;
80910;SDS011;70359;51.420;7.032;2024-02-26T05:17:29;1.2;;;1.1;;
80910;SDS011;70359;51.420;7.032;2024-02-26T05:19:54;1.1;;;1;;
80910;SDS011;70359;51.420;7.032;2024-02-26T05:22:19;1.1;;;1;;
80910;SDS011;70359;51.420;7.032;2024-02-26T05:24:44;1.2;;;1.1;;
80910;SDS011;70359;51.420;7.032;2024-02-26T05:27:09;1.2;;;1.1;;
80910;SDS011;70359;51.420;7.032;2024-02-26T05:29:34;1.3;;;1.1;;
80910;SDS011;70359;51.420;7.032;2024-02-26T05:31:59;1.3;;;1.1;;
80910;SDS011;70359;51.420;7.032;2024-02-26T05:34:24;1;;;0.9;;
80910;SDS011;70359;51.420;7.032;2024-02-26T05:36:49;1;;;0.9;;
80910;SDS011;70359;51.420;7.032;2024-02-26T05:39:14;1.2;;;1.1;;
80910;SDS011;70359;51.420;7.032;2024-02-26T05:41:39;1.2;;;1.1;;
80910;SDS011;70359;51.420;7.032;2024-02-26T05:44:04;2.1;;;1.3;;
80910;SDS011;70359;51.420;7.032;2024-02-26T05:46:29;2.1;;;1.3;;
80910;SDS011;70359;51.420;7.032;2024-02-26T05:48:54;2.1;;;1.5;;
80910;SDS011;70359;51.420;7.032;2024-02-26T05:51:19;2.1;;;1.5;;
80910;SDS011;70359;51.420;7.032;2024-02-26T05:53:48;1.9;;;1.1;;
80910;SDS011;70359;51.420;7.032;2024-02-26T05:56:09;1.9;;;1.1;;
80910;SDS011;70359;51.420;7.032;2024-02-26T05:58:34;0.9;;;0.9;;
80910;SDS011;70359;51.420;7.032;2024-02-26T06:00:59;0.9;;;0.9;;
80910;SDS011;70359;51.420;7.032;2024-02-26T06:03:24;0.9;;;0.9;;
80910;SDS011;70359;51.420;7.032;2024-02-26T06:05:49;3.3;;;1.5;;
80910;SDS011;70359;51.420;7.032;2024-02-26T06:08:14;3.3;;;1.5;;
80910;SDS011;70359;51.420;7.032;2024-02-26T06:10:43;2;;;1.5;;
80910;SDS011;70359;51.420;7.032;2024-02-26T06:13:04;2;;;1.5;;
80910;SDS011;70359;51.420;7.032;2024-02-26T06:15:29;2.1;;;1.2;;
80910;SDS011;70359;51.420;7.032;2024-02-26T06:17:54;2.1;;;1.2;;
80910;SDS011;70359;51.420;7.032;2024-02-26T06:20:19;2.3;;;1.4;;
80910;SDS011;70359;51.420;7.032;2024-02-26T06:22:48;2.3;;;1.4;;
80910;SDS011;70359;51.420;7.032;2024-02-26T06:25:09;2.1;;;1.2;;
80910;SDS011;70359;51.420;7.032;2024-02-26T06:27:34;2.1;;;1.2;;
80910;SDS011;70359;51.420;7.032;2024-02-26T06:29:59;2.3;;;1.4;;
80910;SDS011;70359;51.420;7.032;2024-02-26T06:32:24;2.3;;;1.4;;
80910;SDS011;70359;51.420;7.032;2024-02-26T06:34:49;2;;;1.4;;
80910;SDS011;70359;51.420;7.032;2024-02-26T06:37:18;2;;;1.4;;
80910;SDS011;70359;51.420;7.032;2024-02-26T06:39:43;1.5;;;1.2;;
80910;SDS011;70359;51.420;7.032;2024-02-26T06:42:04;1.5;;;1.2;;
80910;SDS011;70359;51.420;7.032;2024-02-26T06:44:29;1.3;;;1.2;;
80910;SDS011;70359;51.420;7.032;2024-02-26T06:46:58;1.3;;;1.2;;
80910;SDS011;70359;51.420;7.032;2024-02-26T06:49:19;1;;;1;;
80910;SDS011;70359;51.420;7.032;2024-02-26T06:51:44;1;;;1;;
80910;SDS011;70359;51.420;7.032;2024-02-26T06:54:09;2.2;;;1.7;;
80910;SDS011;70359;51.420;7.032;2024-02-26T06:56:38;2.2;;;1.7;;
80910;SDS011;70359;51.420;7.032;2024-02-26T06:58:59;1;;;1;;
80910;SDS011;70359;51.420;7.032;2024-02-26T07:01:24;1;;;1;;
80910;SDS011;70359;51.420;7.032;2024-02-26T07:03:49;1.6;;;1.5;;
80910;SDS011;70359;51.420;7.032;2024-02-26T07:06:14;1.6;;;1.5;;
80910;SDS011;70359;51.420;7.032;2024-02-26T07:08:43;1.5;;;1.1;;
80910;SDS011;70359;51.420;7.032;2024-02-26T07:11:06;1.5;;;1.1;;
80910;SDS011;70359;51.420;7.032;2024-02-26T07:13:34;1.7;;;1.2;;
80910;SDS011;70359;51.420;7.032;2024-02-26T07:15:54;1.7;;;1.2;;
80910;SDS011;70359;51.420;7.032;2024-02-26T07:18:19;1.7;;;1.2;;
80910;SDS011;70359;51.420;7.032;2024-02-26T07:20:48;1.4;;;1.3;;
80910;SDS011;70359;51.420;7.032;2024-02-26T07:23:09;1.4;;;1.3;;
80910;SDS011;70359;51.420;7.032;2024-02-26T07:25:34;1.2;;;1.1;;
80910;SDS011;70359;51.420;7.032;2024-02-26T07:27:59;1.2;;;1.1;;
80910;SDS011;70359;51.420;7.032;2024-02-26T07:30:24;4.2;;;2.2;;
80910;SDS011;70359;51.420;7.032;2024-02-26T07:32:53;4.2;;;2.2;;
80910;SDS011;70359;51.420;7.032;2024-02-26T07:35:14;1.4;;;1.3;;
80910;SDS011;70359;51.420;7.032;2024-02-26T07:37:39;1.4;;;1.3;;
80910;SDS011;70359;51.420;7.032;2024-02-26T07:40:05;1.4;;;1.3;;
80910;SDS011;70359;51.420;7.032;2024-02-26T07:42:29;1.4;;;1.3;;
80910;SDS011;70359;51.420;7.032;2024-02-26T07:44:58;1.4;;;1.3;;
80910;SDS011;70359;51.420;7.032;2024-02-26T07:47:19;1.4;;;1.3;;
80910;SDS011;70359;51.420;7.032;2024-02-26T07:49:44;2.1;;;1.9;;
80910;SDS011;70359;51.420;7.032;2024-02-26T07:52:13;2.1;;;1.9;;
80910;SDS011;70359;51.420;7.032;2024-02-26T07:54:34;2.2;;;1.8;;
80910;SDS011;70359;51.420;7.032;2024-02-26T07:56:59;2.2;;;1.8;;
80910;SDS011;70359;51.420;7.032;2024-02-26T07:59:24;1.7;;;1.6;;
80910;SDS011;70359;51.420;7.032;2024-02-26T08:01:53;1.7;;;1.6;;
80910;SDS011;70359;51.420;7.032;2024-02-26T08:04:14;1.6;;;1.3;;
80910;SDS011;70359;51.420;7.032;2024-02-26T08:06:43;1.6;;;1.3;;
80910;SDS011;70359;51.420;7.032;2024-02-26T08:09:05;1.3;;;1.2;;
80910;SDS011;70359;51.420;7.032;2024-02-26T08:11:29;1.3;;;1.2;;
80910;SDS011;70359;51.420;7.032;2024-02-26T08:13:54;2.2;;;1.8;;
80910;SDS011;70359;51.420;7.032;2024-02-26T08:16:19;2.2;;;1.8;;
80910;SDS011;70359;51.420;7.032;2024-02-26T08:18:44;1.8;;;1.4;;
80910;SDS011;70359;51.420;7.032;2024-02-26T08:21:13;1.8;;;1.4;;
80910;SDS011;70359;51.420;7.032;2024-02-26T08:23:34;1.4;;;1.3;;
80910;SDS011;70359;51.420;7.032;2024-02-26T08:25:59;1.4;;;1.3;;
80910;SDS011;70359;51.420;7.032;2024-02-26T08:28:24;1.4;;;1.3;;
80910;SDS011;70359;51.420;7.032;2024-02-26T08:30:49;2.5;;;1.8;;
80910;SDS011;70359;51.420;7.032;2024-02-26T08:33:18;2.5;;;1.8;;
80910;SDS011;70359;51.420;7.032;2024-02-26T08:35:39;1.6;;;1.5;;
80910;SDS011;70359;51.420;7.032;2024-02-26T08:38:04;1.6;;;1.5;;
80910;SDS011;70359;51.420;7.032;2024-02-26T08:40:29;1.3;;;1.2;;
80910;SDS011;70359;51.420;7.032;2024-02-26T08:42:54;1.3;;;1.2;;
80910;SDS011;70359;51.420;7.032;2024-02-26T08:45:23;2;;;1.7;;
80910;SDS011;70359;51.420;7.032;2024-02-26T08:47:48;2;;;1.7;;
80910;SDS011;70359;51.420;7.032;2024-02-26T08:50:09;2.1;;;1.9;;
80910;SDS011;70359;51.420;7.032;2024-02-26T08:52:34;2.1;;;1.9;;
80910;SDS011;70359;51.420;7.032;2024-02-26T08:54:59;2.1;;;1.9;;
80910;SDS011;70359;51.420;7.032;2024-02-26T08:57:25;2.1;;;1.9;;
80910;SDS011;70359;51.420;7.032;2024-02-26T08:59:49;2.2;;;1.8;;
80910;SDS011;70359;51.420;7.032;2024-02-26T09:02:18;2.2;;;1.8;;
80910;SDS011;70359;51.420;7.032;2024-02-26T09:04:39;1.7;;;1.6;;
80910;SDS011;70359;51.420;7.032;2024-02-26T09:07:04;1.7;;;1.6;;
80910;SDS011;70359;51.420;7.032;2024-02-26T09:09:33;1.5;;;1.4;;
80910;SDS011;70359;51.420;7.032;2024-02-26T09:11:54;1.5;;;1.4;;
80910;SDS011;70359;51.420;7.032;2024-02-26T09:14:19;1.9;;;1.8;;
80910;SDS011;70359;51.420;7.032;2024-02-26T09:16:44;1.9;;;1.8;;
80910;SDS011;70359;51.420;7.032;2024-02-26T09:19:09;3;;;1.8;;
80910;SDS011;70359;51.420;7.032;2024-02-26T09:21:39;3;;;1.8;;
80910;SDS011;70359;51.420;7.032;2024-02-26T09:24:04;1.9;;;1.7;;
80910;SDS011;70359;51.420;7.032;2024-02-26T09:26:28;1.9;;;1.7;;
80910;SDS011;70359;51.420;7.032;2024-02-26T09:28:49;2.7;;;2.1;;
80910;SDS011;70359;51.420;7.032;2024-02-26T09:31:14;2.7;;;2.1;;
80910;SDS011;70359;51.420;7.032;2024-02-26T09:33:39;1.9;;;1.8;;
80910;SDS011;70359;51.420;7.032;2024-02-26T09:36:05;1.9;;;1.8;;
80910;SDS011;70359;51.420;7.032;2024-02-26T09:38:29;4.9;;;2.1;;
80910;SDS011;70359;51.420;7.032;2024-02-26T09:40:54;4.9;;;2.1;;
80910;SDS011;70359;51.420;7.032;2024-02-26T09:43:21;4.9;;;2.1;;
80910;SDS011;70359;51.420;7.032;2024-02-26T09:45:44;2.1;;;1.9;;
80910;SDS011;70359;51.420;7.032;2024-02-26T09:48:10;2.1;;;1.9;;
80910;SDS011;70359;51.420;7.032;2024-02-26T09:50:34;1.8;;;1.7;;
80910;SDS011;70359;51.420;7.032;2024-02-26T09:53:00;1.8;;;1.7;;
80910;SDS011;70359;51.420;7.032;2024-02-26T09:55:24;2;;;1.8;;
80910;SDS011;70359;51.420;7.032;2024-02-26T09:57:55;2;;;1.8;;
80910;SDS011;70359;51.420;7.032;2024-02-26T10:00:17;1.7;;;1.6;;
80910;SDS011;70359;51.420;7.032;2024-02-26T10:02:39;1.7;;;1.6;;
80910;SDS011;70359;51.420;7.032;2024-02-26T10:05:07;1.7;;;1.5;;
80910;SDS011;70359;51.420;7.032;2024-02-26T10:07:30;1.7;;;1.5;;
80910;SDS011;70359;51.420;7.032;2024-02-26T10:09:55;1.7;;;1.6;;
80910;SDS011;70359;51.420;7.032;2024-02-26T10:12:20;1.7;;;1.6;;
80910;SDS011;70359;51.420;7.032;2024-02-26T10:14:48;2;;;1.8;;
80910;SDS011;70359;51.420;7.032;2024-02-26T10:17:10;2;;;1.8;;
80910;SDS011;70359;51.420;7.032;2024-02-26T10:19:38;2.1;;;1.9;;
80910;SDS011;70359;51.420;7.032;2024-02-26T10:22:00;2.1;;;1.9;;
80910;SDS011;70359;51.420;7.032;2024-02-26T10:24:25;1.8;;;1.7;;
80910;SDS011;70359;51.420;7.032;2024-02-26T10:26:54;1.8;;;1.7;;
80910;SDS011;70359;51.420;7.032;2024-02-26T10:29:14;2.2;;;1.8;;
80910;SDS011;70359;51.420;7.032;2024-02-26T10:31:41;2.2;;;1.8;;
80910;SDS011;70359;51.420;7.032;2024-02-26T10:34:04;2.8;;;2.1;;
80910;SDS011;70359;51.420;7.032;2024-02-26T10:36:37;2.8;;;2.1;;
80910;SDS011;70359;51.420;7.032;2024-02-26T10:39:01;2.4;;;2.2;;
80910;SDS011;70359;51.420;7.032;2024-02-26T10:41:24;2.4;;;2.2;;
80910;SDS011;70359;51.420;7.032;2024-02-26T10:43:47;1.7;;;1.6;;
80910;SDS011;70359;51.420;7.032;2024-02-26T10:46:10;1.7;;;1.6;;
80910;SDS011;70359;51.420;7.032;2024-02-26T10:48:35;3;;;1.9;;
80910;SDS011;70359;51.420;7.032;2024-02-26T10:51:00;3;;;1.9;;
80910;SDS011;70359;51.420;7.032;2024-02-26T10:53:33;3;;;1.9;;
80910;SDS011;70359;51.420;7.032;2024-02-26T10:55:54;2.2;;;2;;
80910;SDS011;70359;51.420;7.032;2024-02-26T10:58:16;2.2;;;2;;
80910;SDS011;70359;51.420;7.032;2024-02-26T11:00:40;4.1;;;2.7;;
80910;SDS011;70359;51.420;7.032;2024-02-26T11:03:05;4.1;;;2.7;;
80910;SDS011;70359;51.420;7.032;2024-02-26T11:05:30;2.5;;;2.2;;
80910;SDS011;70359;51.420;7.032;2024-02-26T11:07:55;2.5;;;2.2;;
80910;SDS011;70359;51.420;7.032;2024-02-26T11:10:20;2.3;;;2.1;;
80910;SDS011;70359;51.420;7.032;2024-02-26T11:12:49;2.3;;;2.1;;
80910;SDS011;70359;51.420;7.032;2024-02-26T11:15:10;4.1;;;2.7;;
80910;SDS011;70359;51.420;7.032;2024-02-26T11:17:39;4.1;;;2.7;;
80910;SDS011;70359;51.420;7.032;2024-02-26T11:20:00;3;;;2.6;;
80910;SDS011;70359;51.420;7.032;2024-02-26T11:22:25;3;;;2.6;;
80910;SDS011;70359;51.420;7.032;2024-02-26T11:24:50;3.7;;;2.8;;
80910;SDS011;70359;51.420;7.032;2024-02-26T11:27:17;3.7;;;2.8;;
80910;SDS011;70359;51.420;7.032;2024-02-26T11:29:44;3.1;;;2.7;;
80910;SDS011;70359;51.420;7.032;2024-02-26T11:32:05;3.1;;;2.7;;
80910;SDS011;70359;51.420;7.032;2024-02-26T11:34:30;4.8;;;2.8;;
80910;SDS011;70359;51.420;7.032;2024-02-26T11:36:55;4.8;;;2.8;;
80910;SDS011;70359;51.420;7.032;2024-02-26T11:39:24;2.7;;;2.5;;
80910;SDS011;70359;51.420;7.032;2024-02-26T11:41:45;2.7;;;2.5;;
80910;SDS011;70359;51.420;7.032;2024-02-26T11:44:10;2.8;;;2.6;;
80910;SDS011;70359;51.420;7.032;2024-02-26T11:46:38;2.8;;;2.6;;
80910;SDS011;70359;51.420;7.032;2024-02-26T11:49:03;5.4;;;3;;
80910;SDS011;70359;51.420;7.032;2024-02-26T11:51:33;5.4;;;3;;
80910;SDS011;70359;51.420;7.032;2024-02-26T11:53:50;2.6;;;2.4;;
80910;SDS011;70359;51.420;7.032;2024-02-26T11:56:23;2.6;;;2.4;;
80910;SDS011;70359;51.420;7.032;2024-02-26T11:58:42;3;;;2.6;;
80910;SDS011;70359;51.420;7.032;2024-02-26T12:03:30;3.2;;;2.6;;
80910;SDS011;70359;51.420;7.032;2024-02-26T12:06:00;3.2;;;2.6;;
80910;SDS011;70359;51.420;7.032;2024-02-26T12:08:20;3.2;;;2.6;;
80910;SDS011;70359;51.420;7.032;2024-02-26T12:10:45;3.3;;;2.9;;
80910;SDS011;70359;51.420;7.032;2024-02-26T12:13:11;3.3;;;2.9;;
80910;SDS011;70359;51.420;7.032;2024-02-26T12:15:37;2.8;;;2.6;;
80910;SDS011;70359;51.420;7.032;2024-02-26T12:18:00;2.8;;;2.6;;
80910;SDS011;70359;51.420;7.032;2024-02-26T12:20:29;2.6;;;2.4;;
80910;SDS011;70359;51.420;7.032;2024-02-26T12:22:50;2.6;;;2.4;;
80910;SDS011;70359;51.420;7.032;2024-02-26T12:25:15;3.2;;;2.9;;
80910;SDS011;70359;51.420;7.032;2024-02-26T12:27:40;3.2;;;2.9;;
80910;SDS011;70359;51.420;7.032;2024-02-26T12:30:06;5;;;3.3;;
80910;SDS011;70359;51.420;7.032;2024-02-26T12:32:34;5;;;3.3;;
80910;SDS011;70359;51.420;7.032;2024-02-26T12:34:56;3.1;;;2.8;;
80910;SDS011;70359;51.420;7.032;2024-02-26T12:37:20;3.1;;;2.8;;
80910;SDS011;70359;51.420;7.032;2024-02-26T12:39:45;3.4;;;3.1;;
80910;SDS011;70359;51.420;7.032;2024-02-26T12:42:10;3.4;;;3.1;;
80910;SDS011;70359;51.420;7.032;2024-02-26T12:44:35;5.1;;;4;;
80910;SDS011;70359;51.420;7.032;2024-02-26T12:47:04;5.1;;;4;;
80910;SDS011;70359;51.420;7.032;2024-02-26T12:49:25;3.6;;;2.9;;
80910;SDS011;70359;51.420;7.032;2024-02-26T12:51:50;3.6;;;2.9;;
80910;SDS011;70359;51.420;7.032;2024-02-26T12:54:15;4.8;;;3.5;;
80910;SDS011;70359;51.420;7.032;2024-02-26T12:56:40;4.8;;;3.5;;
80910;SDS011;70359;51.420;7.032;2024-02-26T12:59:05;4;;;3;;
80910;SDS011;70359;51.420;7.032;2024-02-26T13:01:30;4;;;3;;
80910;SDS011;70359;51.420;7.032;2024-02-26T13:03:55;5;;;3;;
80910;SDS011;70359;51.420;7.032;2024-02-26T13:06:20;5;;;3;;
80910;SDS011;70359;51.420;7.032;2024-02-26T13:08:45;4.2;;;2.4;;
80910;SDS011;70359;51.420;7.032;2024-02-26T13:11:14;4.2;;;2.4;;
80910;SDS011;70359;51.420;7.032;2024-02-26T13:13:35;2.8;;;2.5;;
80910;SDS011;70359;51.420;7.032;2024-02-26T13:16:07;2.8;;;2.5;;
80910;SDS011;70359;51.420;7.032;2024-02-26T13:18:27;2.8;;;2.5;;
80910;SDS011;70359;51.420;7.032;2024-02-26T13:20:50;3;;;2.7;;
80910;SDS011;70359;51.420;7.032;2024-02-26T13:23:15;3;;;2.7;;
80910;SDS011;70359;51.420;7.032;2024-02-26T13:25:40;2.8;;;2.5;;
80910;SDS011;70359;51.420;7.032;2024-02-26T13:28:13;2.8;;;2.5;;
80910;SDS011;70359;51.420;7.032;2024-02-26T13:30:30;2.8;;;2.5;;
80910;SDS011;70359;51.420;7.032;2024-02-26T13:32:55;2.8;;;2.5;;
80910;SDS011;70359;51.420;7.032;2024-02-26T13:35:24;3;;;2.5;;
80910;SDS011;70359;51.420;7.032;2024-02-26T13:37:45;3;;;2.5;;
80910;SDS011;70359;51.420;7.032;2024-02-26T13:40:11;4.1;;;2.6;;
80910;SDS011;70359;51.420;7.032;2024-02-26T13:42:35;4.1;;;2.6;;
80910;SDS011;70359;51.420;7.032;2024-02-26T13:45:00;2.5;;;2.2;;
80910;SDS011;70359;51.420;7.032;2024-02-26T13:47:25;2.5;;;2.2;;
80910;SDS011;70359;51.420;7.032;2024-02-26T13:49:50;3.6;;;2.6;;
80910;SDS011;70359;51.420;7.032;2024-02-26T13:52:15;3.6;;;2.6;;
80910;SDS011;70359;51.420;7.032;2024-02-26T13:54:40;2.6;;;2.2;;
80910;SDS011;70359;51.420;7.032;2024-02-26T13:57:05;2.6;;;2.2;;
80910;SDS011;70359;51.420;7.032;2024-02-26T13:59:30;2.9;;;2.5;;
80910;SDS011;70359;51.420;7.032;2024-02-26T14:01:55;2.9;;;2.5;;
80910;SDS011;70359;51.420;7.032;2024-02-26T14:04:20;2.4;;;2.2;;
80910;SDS011;70359;51.420;7.032;2024-02-26T14:06:45;2.4;;;2.2;;
80910;SDS011;70359;51.420;7.032;2024-02-26T14:09:10;2.5;;;2.1;;
80910;SDS011;70359;51.420;7.032;2024-02-26T14:11:35;2.5;;;2.1;;
80910;SDS011;70359;51.420;7.032;2024-02-26T14:14:04;2.6;;;1.8;;
80910;SDS011;70359;51.420;7.032;2024-02-26T14:16:25;2.6;;;1.8;;
80910;SDS011;70359;51.420;7.032;2024-02-26T14:18:50;2.3;;;2.1;;
80910;SDS011;70359;51.420;7.032;2024-02-26T14:21:15;2.3;;;2.1;;
80910;SDS011;70359;51.420;7.032;2024-02-26T14:23:44;2.1;;;1.9;;
80910;SDS011;70359;51.420;7.032;2024-02-26T14:26:05;2.1;;;1.9;;
80910;SDS011;70359;51.420;7.032;2024-02-26T14:28:40;3.9;;;2.4;;
80910;SDS011;70359;51.420;7.032;2024-02-26T14:30:55;3.9;;;2.4;;
80910;SDS011;70359;51.420;7.032;2024-02-26T14:33:20;3.9;;;2.4;;
80910;SDS011;70359;51.420;7.032;2024-02-26T14:35:45;2;;;1.8;;
80910;SDS011;70359;51.420;7.032;2024-02-26T14:38:10;2;;;1.8;;
80910;SDS011;70359;51.420;7.032;2024-02-26T14:40:35;2.9;;;2.2;;
80910;SDS011;70359;51.420;7.032;2024-02-26T14:43:00;2.9;;;2.2;;
80910;SDS011;70359;51.420;7.032;2024-02-26T14:45:25;2.4;;;2.1;;
80910;SDS011;70359;51.420;7.032;2024-02-26T14:47:54;2.4;;;2.1;;
80910;SDS011;70359;51.420;7.032;2024-02-26T14:50:15;2.5;;;2.3;;
80910;SDS011;70359;51.420;7.032;2024-02-26T14:52:40;2.5;;;2.3;;
80910;SDS011;70359;51.420;7.032;2024-02-26T14:55:05;2.3;;;2.1;;
80910;SDS011;70359;51.420;7.032;2024-02-26T14:57:34;2.3;;;2.1;;
80910;SDS011;70359;51.420;7.032;2024-02-26T14:59:55;2.3;;;2.1;;
80910;SDS011;70359;51.420;7.032;2024-02-26T15:02:20;2.3;;;2.1;;
80910;SDS011;70359;51.420;7.032;2024-02-26T15:04:45;2.7;;;2.3;;
80910;SDS011;70359;51.420;7.032;2024-02-26T15:07:10;2.7;;;2.3;;
80910;SDS011;70359;51.420;7.032;2024-02-26T15:09:36;3.4;;;2.3;;